Time;durP1;ratioP1;P1;durP2;ratioP2;P2;SDS_P1;SDS_P2;PMS_P1;PMS_P2;Temp;Humidity;BMP_temperature;BMP_pressure;BME280_temperature;BME280_humidity;BME280_pressure;Samples;Min_cycle;Max_cycle;Signal;HPM_P1;HPM_P2
2022/04/17 00:00:10;;;;;;;;;1.50;1.50;;;;;;;;5074938;27;46312;-71
2022/04/17 00:02:35;;;;;;;;;2.75;2.75;;;;;;;;5075771;27;45248;-71
2022/04/17 00:05:01;;;;;;;;;4.00;4.00;;;;;;;;5075960;28;45255;-71
2022/04/17 00:07:26;;;;;;;;;3.00;3.00;;;;;;;;5074621;28;45388;-71
2022/04/17 00:09:51;;;;;;;;;2.33;2.33;;;;;;;;5074797;28;46350;-71
2022/04/17 00:12:17;;;;;;;;;2.50;2.50;;;;;;;;5075124;27;45477;-71
2022/04/17 00:14:43;;;;;;;;;3.00;3.00;;;;;;;;5076144;27;45141;-71
2022/04/17 00:17:09;;;;;;;;;3.00;3.00;;;;;;;;5075425;27;45310;-71
2022/04/17 00:19:34;;;;;;;;;3.50;3.50;;;;;;;;5076718;27;47232;-71
2022/04/17 00:21:59;;;;;;;;;2.25;2.25;;;;;;;;5076634;27;45607;-71
2022/04/17 00:24:27;;;;;;;;;3.25;3.25;;;;;;;;5076029;27;45441;-71
2022/04/17 00:26:52;;;;;;;;;2.33;2.00;;;;;;;;5074712;28;45364;-71
2022/04/17 00:29:17;;;;;;;;;4.00;4.00;;;;;;;;5074213;28;46445;-71
2022/04/17 00:31:42;;;;;;;;;3.25;3.25;;;;;;;;5074070;28;45933;-71
2022/04/17 00:34:07;;;;;;;;;3.00;3.00;;;;;;;;5077212;27;45615;-71
2022/04/17 00:36:33;;;;;;;;;3.00;3.00;;;;;;;;5074436;27;45569;-72
2022/04/17 00:38:58;;;;;;;;;4.00;2.75;;;;;;;;5069623;27;47318;-71
2022/04/17 00:41:23;;;;;;;;;3.50;3.50;;;;;;;;5074822;27;45735;-72
2022/04/17 00:43:48;;;;;;;;;2.75;2.75;;;;;;;;5060527;28;45510;-71
2022/04/17 00:46:14;;;;;;;;;3.50;3.50;;;;;;;;5073217;28;45563;-71
2022/04/17 00:48:39;;;;;;;;;2.75;2.75;;;;;;;;5073020;28;48368;-71
2022/04/17 00:51:05;;;;;;;;;5.00;2.25;;;;;;;;5074353;27;45414;-71
2022/04/17 00:53:30;;;;;;;;;3.00;1.25;;;;;;;;5073776;27;45556;-71
2022/04/17 00:55:56;;;;;;;;;4.00;3.25;;;;;;;;5075628;28;45468;-71
2022/04/17 00:58:22;;;;;;;;;2.75;2.00;;;;;;;;5073077;27;46578;-71
2022/04/17 01:00:47;;;;;;;;;4.25;4.00;;;;;;;;5073707;27;45395;-71
2022/04/17 01:03:12;;;;;;;;;2.00;2.00;;;;;;;;5074198;28;45584;-71
2022/04/17 01:05:42;;;;;;;;;4.50;3.75;;;;;;;;5058485;28;45238;-71
2022/04/17 01:08:07;;;;;;;;;3.00;3.00;;;;;;;;5072896;28;45457;-71
2022/04/17 01:10:33;;;;;;;;;1.75;1.50;;;;;;;;5077178;27;45450;-71
2022/04/17 01:13:01;;;;;;;;;3.50;3.50;;;;;;;;5080539;27;45409;-71
2022/04/17 01:15:27;;;;;;;;;3.00;3.00;;;;;;;;5077381;27;45484;-71
2022/04/17 01:17:53;;;;;;;;;3.00;3.00;;;;;;;;5077523;27;47359;-72
2022/04/17 01:20:19;;;;;;;;;3.00;3.00;;;;;;;;5078243;28;45640;-71
2022/04/17 01:22:46;;;;;;;;;2.00;2.00;;;;;;;;5073832;27;45426;-71
2022/04/17 01:28:03;;;;;;;;;3.50;3.50;;;;;;;;5065550;27;45540;-71
2022/04/17 01:30:28;;;;;;;;;3.00;3.00;;;;;;;;5066031;28;45394;-71
2022/04/17 01:32:53;;;;;;;;;3.00;3.00;;;;;;;;5070805;28;45411;-71
2022/04/17 01:35:19;;;;;;;;;3.50;3.00;;;;;;;;5075751;28;45587;-71
2022/04/17 01:37:47;;;;;;;;;3.00;3.00;;;;;;;;5075754;28;45439;-71
2022/04/17 01:40:12;;;;;;;;;4.00;4.00;;;;;;;;5074748;28;45457;-71
2022/04/17 01:42:38;;;;;;;;;3.25;3.25;;;;;;;;5074220;27;45480;-72
2022/04/17 01:45:03;;;;;;;;;3.50;3.50;;;;;;;;5072005;28;45550;-71
2022/04/17 01:47:29;;;;;;;;;3.00;2.00;;;;;;;;5073795;28;45418;-71
2022/04/17 01:49:55;;;;;;;;;2.67;2.67;;;;;;;;5076171;28;45442;-71
2022/04/17 01:52:20;;;;;;;;;3.00;3.00;;;;;;;;5074494;28;45614;-71
2022/04/17 01:54:45;;;;;;;;;3.00;3.00;;;;;;;;5074448;27;45481;-71
2022/04/17 01:57:10;;;;;;;;;2.00;2.00;;;;;;;;5074957;28;46459;-71
2022/04/17 01:59:36;;;;;;;;;4.00;3.00;;;;;;;;5060588;28;45273;-71
2022/04/17 02:02:01;;;;;;;;;3.25;3.25;;;;;;;;5075439;28;45288;-72
2022/04/17 02:04:28;;;;;;;;;3.00;3.00;;;;;;;;5075703;27;45469;-72
2022/04/17 02:06:53;;;;;;;;;2.00;2.00;;;;;;;;5073033;27;45642;-71
2022/04/17 02:09:18;;;;;;;;;2.25;2.25;;;;;;;;5076019;28;45361;-71
2022/04/17 02:11:45;;;;;;;;;2.00;1.00;;;;;;;;5076980;28;45474;-71
2022/04/17 02:14:11;;;;;;;;;3.50;3.50;;;;;;;;5076999;27;45648;-71
2022/04/17 02:16:36;;;;;;;;;3.00;3.00;;;;;;;;5076338;28;45327;-71
2022/04/17 02:19:02;;;;;;;;;3.00;3.00;;;;;;;;5075517;27;45325;-71
2022/04/17 02:21:28;;;;;;;;;2.00;2.00;;;;;;;;5076501;27;45405;-71
2022/04/17 02:23:53;;;;;;;;;3.00;3.00;;;;;;;;5076115;27;45620;-71
2022/04/17 02:26:18;;;;;;;;;2.75;2.75;;;;;;;;5077420;27;45648;-71
2022/04/17 02:28:44;;;;;;;;;5.25;4.75;;;;;;;;5078007;27;45366;-71
2022/04/17 02:31:10;;;;;;;;;2.00;2.00;;;;;;;;5076702;27;45530;-71
2022/04/17 02:33:36;;;;;;;;;2.67;2.67;;;;;;;;5075927;28;45519;-72
2022/04/17 02:36:02;;;;;;;;;2.33;2.33;;;;;;;;5076685;28;46152;-71
2022/04/17 02:38:27;;;;;;;;;3.00;3.00;;;;;;;;5074977;28;45425;-71
2022/04/17 02:40:53;;;;;;;;;1.33;1.33;;;;;;;;5077995;27;45405;-71
2022/04/17 02:43:18;;;;;;;;;3.50;3.50;;;;;;;;5076076;28;45503;-71
2022/04/17 02:45:44;;;;;;;;;2.50;2.25;;;;;;;;5075446;27;45445;-71
2022/04/17 02:48:09;;;;;;;;;2.25;2.25;;;;;;;;5076386;28;45472;-71
2022/04/17 02:50:34;;;;;;;;;3.75;2.50;;;;;;;;5077942;27;45316;-71
2022/04/17 02:52:59;;;;;;;;;2.50;2.50;;;;;;;;5076746;27;46380;-71
2022/04/17 02:55:25;;;;;;;;;1.50;1.50;;;;;;;;5075518;28;46124;-71
2022/04/17 02:57:50;;;;;;;;;2.00;2.00;;;;;;;;5075421;27;45439;-71
2022/04/17 03:00:16;;;;;;;;;3.00;3.00;;;;;;;;5076489;27;45626;-71
2022/04/17 03:05:39;;;;;;;;;3.50;3.50;;;;;;;;5075983;28;45524;-71
2022/04/17 03:08:08;;;;;;;;;3.00;3.00;;;;;;;;5076357;27;45460;-71
2022/04/17 03:10:34;;;;;;;;;4.50;2.50;;;;;;;;5078701;27;45508;-71
2022/04/17 03:13:00;;;;;;;;;3.00;2.00;;;;;;;;5078902;27;45410;-71
2022/04/17 03:15:25;;;;;;;;;2.00;2.00;;;;;;;;5078323;27;45465;-71
2022/04/17 03:17:51;;;;;;;;;4.00;4.00;;;;;;;;5075425;28;45619;-71
2022/04/17 03:20:16;;;;;;;;;2.25;2.25;;;;;;;;5076424;28;45501;-72
2022/04/17 03:22:42;;;;;;;;;3.00;3.00;;;;;;;;5075418;28;45636;-71
2022/04/17 03:25:08;;;;;;;;;2.75;2.75;;;;;;;;5076100;28;46433;-71
2022/04/17 03:27:33;;;;;;;;;2.25;2.25;;;;;;;;5072718;28;45370;-72
2022/04/17 03:29:59;;;;;;;;;2.00;2.00;;;;;;;;5066893;28;45489;-71
2022/04/17 03:32:24;;;;;;;;;3.00;3.00;;;;;;;;5075170;28;45290;-71
2022/04/17 03:34:49;;;;;;;;;2.33;2.00;;;;;;;;5076058;28;45449;-71
2022/04/17 03:37:15;;;;;;;;;3.25;2.75;;;;;;;;5075042;27;45399;-71
2022/04/17 03:39:40;;;;;;;;;2.00;2.00;;;;;;;;5075085;28;45423;-71
2022/04/17 03:42:06;;;;;;;;;2.67;2.67;;;;;;;;5076870;27;45387;-71
2022/04/17 03:44:31;;;;;;;;;3.00;3.00;;;;;;;;5076110;27;46139;-72
2022/04/17 03:46:56;;;;;;;;;2.75;2.75;;;;;;;;5076300;27;45267;-71
2022/04/17 03:49:22;;;;;;;;;3.00;3.00;;;;;;;;5075476;28;45323;-71
2022/04/17 03:51:47;;;;;;;;;3.25;3.25;;;;;;;;5074337;28;45286;-71
2022/04/17 03:54:12;;;;;;;;;3.00;3.00;;;;;;;;5074729;27;45649;-71
2022/04/17 03:56:37;;;;;;;;;3.00;2.00;;;;;;;;5069163;27;45379;-71
2022/04/17 03:59:02;;;;;;;;;5.00;2.67;;;;;;;;5076067;27;45387;-71
2022/04/17 04:01:28;;;;;;;;;4.67;3.33;;;;;;;;5075086;28;45587;-71
2022/04/17 04:03:54;;;;;;;;;3.00;3.00;;;;;;;;5074756;28;45631;-71
2022/04/17 04:06:20;;;;;;;;;2.00;2.00;;;;;;;;5077043;27;45512;-71
2022/04/17 04:08:46;;;;;;;;;2.75;2.75;;;;;;;;5077855;27;45377;-71
2022/04/17 04:11:11;;;;;;;;;2.00;2.00;;;;;;;;5075382;27;45341;-71
2022/04/17 04:13:36;;;;;;;;;2.75;2.75;;;;;;;;5074928;28;46093;-72
2022/04/17 04:16:02;;;;;;;;;2.00;2.00;;;;;;;;5074948;27;45332;-71
2022/04/17 04:18:27;;;;;;;;;2.00;2.00;;;;;;;;5074399;28;45354;-72
2022/04/17 04:20:53;;;;;;;;;3.00;3.00;;;;;;;;5075973;27;45446;-71
2022/04/17 04:23:21;;;;;;;;;3.00;3.00;;;;;;;;5074603;28;47359;-71
2022/04/17 04:25:46;;;;;;;;;1.75;1.75;;;;;;;;5075176;28;45487;-71
2022/04/17 04:30:55;;;;;;;;;1.50;1.50;;;;;;;;5074561;28;45560;-71
2022/04/17 04:33:20;;;;;;;;;2.50;2.00;;;;;;;;5075945;27;45471;-71
2022/04/17 04:35:45;;;;;;;;;1.25;1.25;;;;;;;;5074536;28;45444;-71
2022/04/17 04:38:11;;;;;;;;;2.25;2.25;;;;;;;;5075242;27;45452;-71
2022/04/17 04:40:36;;;;;;;;;3.00;3.00;;;;;;;;5075109;28;45671;-71
2022/04/17 04:43:02;;;;;;;;;3.00;3.00;;;;;;;;5070673;27;48054;-71
2022/04/17 04:48:12;;;;;;;;;3.00;2.75;;;;;;;;5062876;28;45497;-71
2022/04/17 04:50:37;;;;;;;;;3.00;3.00;;;;;;;;5072588;28;45581;-71
2022/04/17 04:53:02;;;;;;;;;2.00;2.00;;;;;;;;5074882;28;45453;-71
2022/04/17 04:55:28;;;;;;;;;2.00;2.00;;;;;;;;5071271;27;45463;-71
2022/04/17 04:57:53;;;;;;;;;3.00;2.67;;;;;;;;5069955;27;45448;-71
2022/04/17 05:00:18;;;;;;;;;2.00;2.00;;;;;;;;5073827;27;45530;-71
2022/04/17 05:02:44;;;;;;;;;1.75;1.75;;;;;;;;5073769;28;45524;-72
2022/04/17 05:05:09;;;;;;;;;1.75;1.75;;;;;;;;5061756;27;45295;-71
2022/04/17 05:07:35;;;;;;;;;2.00;1.75;;;;;;;;5074072;28;45332;-71
2022/04/17 05:10:00;;;;;;;;;2.75;1.25;;;;;;;;5074364;27;45534;-71
2022/04/17 05:12:27;;;;;;;;;2.00;2.00;;;;;;;;5076115;27;47108;-71
2022/04/17 05:14:52;;;;;;;;;3.00;3.00;;;;;;;;5073890;27;45492;-71
2022/04/17 05:17:17;;;;;;;;;2.00;2.00;;;;;;;;5075076;27;45363;-71
2022/04/17 05:19:43;;;;;;;;;1.00;1.00;;;;;;;;5075272;27;45524;-71
2022/04/17 05:22:15;;;;;;;;;2.00;2.00;;;;;;;;5075136;27;45363;-71
2022/04/17 05:24:40;;;;;;;;;3.33;3.33;;;;;;;;5073520;28;45405;-71
2022/04/17 05:27:06;;;;;;;;;2.00;2.00;;;;;;;;5073575;28;45409;-71
2022/04/17 05:29:31;;;;;;;;;3.67;3.67;;;;;;;;5074027;27;45489;-71
2022/04/17 05:31:56;;;;;;;;;2.00;2.00;;;;;;;;5074215;27;45736;-71
2022/04/17 05:34:21;;;;;;;;;2.00;2.00;;;;;;;;5073788;28;45537;-71
2022/04/17 05:36:47;;;;;;;;;3.00;2.67;;;;;;;;5073401;28;45547;-71
2022/04/17 05:39:12;;;;;;;;;2.33;2.33;;;;;;;;5074160;27;45509;-71
2022/04/17 05:41:38;;;;;;;;;2.75;2.00;;;;;;;;5074872;27;45441;-71
2022/04/17 05:44:04;;;;;;;;;2.00;2.00;;;;;;;;5075050;27;45346;-71
2022/04/17 05:46:30;;;;;;;;;2.25;2.25;;;;;;;;5072962;27;45487;-71
2022/04/17 05:48:57;;;;;;;;;2.75;2.75;;;;;;;;5075410;27;45464;-72
2022/04/17 05:51:22;;;;;;;;;2.00;2.00;;;;;;;;5072776;28;46564;-71
2022/04/17 05:53:48;;;;;;;;;2.00;2.00;;;;;;;;5074876;28;45366;-71
2022/04/17 05:56:13;;;;;;;;;2.75;2.75;;;;;;;;5077671;28;45476;-72
2022/04/17 05:58:38;;;;;;;;;2.00;2.00;;;;;;;;5077624;28;45660;-71
2022/04/17 06:01:03;;;;;;;;;3.50;3.50;;;;;;;;5077800;27;46461;-71
2022/04/17 06:03:29;;;;;;;;;3.00;2.00;;;;;;;;5080300;27;45330;-72
2022/04/17 06:05:54;;;;;;;;;2.25;2.25;;;;;;;;5076316;28;45471;-71
2022/04/17 06:08:19;;;;;;;;;2.25;2.25;;;;;;;;5077984;27;45370;-71
2022/04/17 06:10:44;;;;;;;;;2.00;2.00;;;;;;;;5072143;27;45311;-72
2022/04/17 06:13:09;;;;;;;;;2.00;2.00;;;;;;;;5072439;28;45461;-71
2022/04/17 06:15:35;;;;;;;;;3.25;2.25;;;;;;;;5072534;27;45789;-72
2022/04/17 06:18:00;;;;;;;;;3.00;1.25;;;;;;;;5076552;27;45299;-71
2022/04/17 06:20:25;;;;;;;;;1.50;1.00;;;;;;;;5077056;28;45654;-71
2022/04/17 06:22:50;;;;;;;;;1.00;1.00;;;;;;;;5077317;27;45387;-71
2022/04/17 06:25:15;;;;;;;;;2.25;2.25;;;;;;;;5076917;28;45439;-72
2022/04/17 06:27:47;;;;;;;;;2.50;2.50;;;;;;;;5079010;27;45369;-71
2022/04/17 06:30:14;;;;;;;;;2.00;2.00;;;;;;;;5077316;27;45665;-71
2022/04/17 06:32:40;;;;;;;;;2.50;2.50;;;;;;;;5060464;28;45446;-71
2022/04/17 06:35:05;;;;;;;;;2.00;2.00;;;;;;;;5077826;28;45314;-71
2022/04/17 06:37:31;;;;;;;;;3.67;2.67;;;;;;;;5076138;27;45555;-71
2022/04/17 06:39:57;;;;;;;;;2.00;2.00;;;;;;;;5078353;27;45640;-72
2022/04/17 06:42:22;;;;;;;;;3.00;3.00;;;;;;;;5076000;28;45616;-71
2022/04/17 06:44:47;;;;;;;;;2.00;2.00;;;;;;;;5076002;27;45394;-71
2022/04/17 06:47:13;;;;;;;;;3.50;2.75;;;;;;;;5074677;28;45361;-71
2022/04/17 06:49:38;;;;;;;;;3.50;2.25;;;;;;;;5075938;28;46249;-71
2022/04/17 06:52:03;;;;;;;;;1.75;1.75;;;;;;;;5075871;28;45572;-71
2022/04/17 06:54:28;;;;;;;;;2.00;2.00;;;;;;;;5075957;28;45376;-71
2022/04/17 06:56:54;;;;;;;;;3.00;3.00;;;;;;;;5079017;27;45528;-71
2022/04/17 06:59:19;;;;;;;;;1.75;1.75;;;;;;;;5076438;27;46495;-71
2022/04/17 07:01:44;;;;;;;;;2.75;2.75;;;;;;;;5077596;27;45669;-71
2022/04/17 07:04:09;;;;;;;;;1.00;1.00;;;;;;;;5076294;27;45367;-71
2022/04/17 07:06:34;;;;;;;;;0.25;0.25;;;;;;;;5076586;27;45551;-71
2022/04/17 07:09:00;;;;;;;;;2.00;2.00;;;;;;;;5077149;27;45964;-71
2022/04/17 07:11:26;;;;;;;;;1.25;1.25;;;;;;;;5076365;27;45395;-71
2022/04/17 07:13:51;;;;;;;;;3.00;3.00;;;;;;;;5074329;28;45525;-71
2022/04/17 07:16:16;;;;;;;;;2.00;2.00;;;;;;;;5075930;27;45395;-71
2022/04/17 07:18:42;;;;;;;;;2.00;2.00;;;;;;;;5076516;27;47436;-71
2022/04/17 07:21:08;;;;;;;;;1.75;1.75;;;;;;;;5077604;27;45402;-71
2022/04/17 07:23:33;;;;;;;;;2.00;2.00;;;;;;;;5060833;27;45311;-70
2022/04/17 07:25:58;;;;;;;;;1.75;1.75;;;;;;;;5077579;27;45374;-71
2022/04/17 07:28:23;;;;;;;;;2.25;2.25;;;;;;;;5077029;27;45564;-71
2022/04/17 07:30:49;;;;;;;;;2.00;2.00;;;;;;;;5072523;28;45362;-71
2022/04/17 07:33:16;;;;;;;;;2.00;2.00;;;;;;;;5077979;27;45552;-71
2022/04/17 07:35:42;;;;;;;;;2.00;2.00;;;;;;;;5059999;28;45413;-70
2022/04/17 07:38:08;;;;;;;;;2.50;2.50;;;;;;;;5071982;28;45358;-71
2022/04/17 07:40:34;;;;;;;;;1.50;1.50;;;;;;;;5072005;28;45445;-71
2022/04/17 07:43:00;;;;;;;;;2.75;2.75;;;;;;;;5074982;27;45505;-72
2022/04/17 07:45:25;;;;;;;;;2.00;2.00;;;;;;;;5070217;27;45535;-71
2022/04/17 07:47:51;;;;;;;;;2.50;2.50;;;;;;;;5075161;28;45901;-71
2022/04/17 07:50:34;;;;;;;;;3.33;1.67;;;;;;;;5075353;28;45425;-71
2022/04/17 07:53:00;;;;;;;;;2.00;2.00;;;;;;;;5075146;28;45270;-71
2022/04/17 07:55:25;;;;;;;;;2.25;2.25;;;;;;;;5075566;28;45385;-71
2022/04/17 07:58:12;;;;;;;;;2.75;2.75;;;;;;;;5074454;28;46470;-71
2022/04/17 08:00:57;;;;;;;;;2.00;2.00;;;;;;;;5066747;28;45432;-71
2022/04/17 08:03:35;;;;;;;;;1.50;1.50;;;;;;;;5073819;28;45448;-71
2022/04/17 08:06:07;;;;;;;;;1.00;1.00;;;;;;;;5074579;27;45573;-71
2022/04/17 08:08:37;;;;;;;;;2.00;2.00;;;;;;;;5074192;28;47310;-71
2022/04/17 08:11:02;;;;;;;;;1.00;1.00;;;;;;;;5075765;27;45846;-71
2022/04/17 08:13:28;;;;;;;;;2.25;2.25;;;;;;;;5073580;28;45549;-71
2022/04/17 08:15:53;;;;;;;;;1.50;1.50;;;;;;;;5074174;27;45495;-71
2022/04/17 08:18:18;;;;;;;;;1.75;1.75;;;;;;;;5074025;28;45668;-71
2022/04/17 08:20:44;;;;;;;;;3.00;3.00;;;;;;;;5076800;27;45322;-71
2022/04/17 08:23:09;;;;;;;;;2.00;2.00;;;;;;;;5076039;27;45489;-71
2022/04/17 08:25:34;;;;;;;;;3.00;3.00;;;;;;;;5074610;27;45365;-70
2022/04/17 08:28:00;;;;;;;;;2.33;2.33;;;;;;;;5076167;27;45625;-71
2022/04/17 08:30:26;;;;;;;;;4.50;3.50;;;;;;;;5073366;27;45707;-71
2022/04/17 08:32:52;;;;;;;;;2.00;2.00;;;;;;;;5078009;27;45448;-72
2022/04/17 08:35:17;;;;;;;;;2.00;2.00;;;;;;;;5074422;28;45392;-71
2022/04/17 08:37:43;;;;;;;;;2.75;2.00;;;;;;;;5074963;27;45466;-71
2022/04/17 08:40:10;;;;;;;;;1.75;1.75;;;;;;;;5073831;28;46002;-71
2022/04/17 08:42:36;;;;;;;;;1.00;1.00;;;;;;;;5073782;28;45399;-71
2022/04/17 08:45:02;;;;;;;;;2.00;2.00;;;;;;;;5074809;27;45525;-71
2022/04/17 08:47:27;;;;;;;;;1.00;1.00;;;;;;;;5074762;27;47219;-71
2022/04/17 08:49:53;;;;;;;;;2.25;2.25;;;;;;;;5075150;27;45418;-71
2022/04/17 08:52:19;;;;;;;;;2.00;2.00;;;;;;;;5077793;27;45331;-71
2022/04/17 08:54:45;;;;;;;;;2.00;2.00;;;;;;;;5075493;27;45544;-71
2022/04/17 08:57:10;;;;;;;;;3.25;2.00;;;;;;;;5077252;27;46931;-71
2022/04/17 08:59:36;;;;;;;;;2.25;2.25;;;;;;;;5076088;27;45248;-71
2022/04/17 09:02:10;;;;;;;;;2.00;2.00;;;;;;;;5075756;27;45451;-71
2022/04/17 09:04:35;;;;;;;;;2.00;2.00;;;;;;;;5074293;27;45346;-71
2022/04/17 09:07:00;;;;;;;;;0.33;0.33;;;;;;;;5074186;28;45496;-71
2022/04/17 09:09:26;;;;;;;;;2.00;2.00;;;;;;;;5076675;27;45283;-71
2022/04/17 09:11:57;;;;;;;;;3.67;2.00;;;;;;;;5074325;27;45615;-71
2022/04/17 09:14:22;;;;;;;;;2.75;1.00;;;;;;;;5073991;27;45409;-71
2022/04/17 09:16:51;;;;;;;;;2.25;2.25;;;;;;;;5074957;28;46022;-71
2022/04/17 09:19:17;;;;;;;;;1.33;1.33;;;;;;;;5073586;28;45287;-71
2022/04/17 09:21:42;;;;;;;;;1.50;1.50;;;;;;;;5073671;27;45399;-71
2022/04/17 09:24:16;;;;;;;;;1.25;1.25;;;;;;;;5073362;28;45261;-71
2022/04/17 09:26:47;;;;;;;;;3.00;3.00;;;;;;;;5063086;28;46173;-71
2022/04/17 09:29:19;;;;;;;;;2.00;2.00;;;;;;;;5061876;28;45378;-71
2022/04/17 09:31:44;;;;;;;;;1.00;1.00;;;;;;;;5079573;27;45350;-71
2022/04/17 09:34:09;;;;;;;;;3.00;3.00;;;;;;;;5080148;27;45459;-71
2022/04/17 09:36:37;;;;;;;;;4.00;1.33;;;;;;;;5077001;27;48136;-71
2022/04/17 09:39:14;;;;;;;;;0.25;0.25;;;;;;;;5078380;27;45566;-71
2022/04/17 09:41:56;;;;;;;;;2.75;2.75;;;;;;;;5076894;27;45397;-71
2022/04/17 09:44:34;;;;;;;;;3.00;3.00;;;;;;;;5075215;28;45353;-71
2022/04/17 09:46:59;;;;;;;;;1.00;1.00;;;;;;;;5076581;28;46670;-71
2022/04/17 09:49:24;;;;;;;;;2.00;2.00;;;;;;;;5077409;27;45666;-71
2022/04/17 09:52:04;;;;;;;;;1.33;1.00;;;;;;;;5071461;27;45313;-71
2022/04/17 09:54:30;;;;;;;;;2.00;2.00;;;;;;;;5076993;28;45458;-71
2022/04/17 09:56:55;;;;;;;;;1.00;1.00;;;;;;;;5073555;27;46313;-71
2022/04/17 09:59:22;;;;;;;;;1.00;1.00;;;;;;;;5062980;28;45524;-71
2022/04/17 10:01:49;;;;;;;;;2.00;2.00;;;;;;;;5077644;27;45523;-71
2022/04/17 10:04:16;;;;;;;;;1.67;1.67;;;;;;;;5077070;27;45403;-71
2022/04/17 10:06:42;;;;;;;;;1.00;1.00;;;;;;;;5076229;28;45520;-71
2022/04/17 10:09:08;;;;;;;;;2.00;2.00;;;;;;;;5075524;27;45460;-71
2022/04/17 10:11:34;;;;;;;;;1.00;1.00;;;;;;;;5076329;27;45555;-71
2022/04/17 10:14:00;;;;;;;;;2.00;2.00;;;;;;;;5079309;27;45548;-71
2022/04/17 10:16:25;;;;;;;;;2.00;2.00;;;;;;;;5076736;28;46045;-71
2022/04/17 10:18:51;;;;;;;;;2.25;2.00;;;;;;;;5077111;27;45472;-71
2022/04/17 10:21:18;;;;;;;;;2.00;2.00;;;;;;;;5072520;27;45480;-71
2022/04/17 10:23:45;;;;;;;;;2.00;2.00;;;;;;;;5075657;27;45453;-71
2022/04/17 10:26:12;;;;;;;;;3.00;3.00;;;;;;;;5077792;27;46967;-71
2022/04/17 10:28:42;;;;;;;;;1.00;1.00;;;;;;;;5077604;27;45436;-71
2022/04/17 10:31:14;;;;;;;;;1.67;1.67;;;;;;;;5076422;27;45505;-71
2022/04/17 10:33:59;;;;;;;;;2.00;2.00;;;;;;;;5077338;27;45332;-71
2022/04/17 10:36:27;;;;;;;;;1.00;1.00;;;;;;;;5075867;28;45611;-71
2022/04/17 10:39:05;;;;;;;;;1.00;1.00;;;;;;;;5076311;28;45334;-72
2022/04/17 10:41:30;;;;;;;;;1.25;1.25;;;;;;;;5076864;28;45526;-72
2022/04/17 10:43:56;;;;;;;;;2.00;2.00;;;;;;;;5077027;27;46876;-71
2022/04/17 10:46:22;;;;;;;;;1.00;1.00;;;;;;;;5073679;28;45587;-71
2022/04/17 10:48:51;;;;;;;;;3.00;1.00;;;;;;;;5076319;28;45560;-71
2022/04/17 10:51:19;;;;;;;;;0.67;0.67;;;;;;;;5076178;28;45403;-71
2022/04/17 10:53:52;;;;;;;;;1.75;1.75;;;;;;;;5075939;28;45248;-71
2022/04/17 10:56:18;;;;;;;;;2.00;2.00;;;;;;;;5076883;27;46752;-70
2022/04/17 10:58:51;;;;;;;;;2.00;2.00;;;;;;;;5067941;27;45731;-71
2022/04/17 11:01:36;;;;;;;;;2.00;1.00;;;;;;;;5074632;28;45447;-71
2022/04/17 11:04:14;;;;;;;;;1.00;1.00;;;;;;;;5074236;27;45318;-71
2022/04/17 11:06:39;;;;;;;;;2.00;2.00;;;;;;;;5075023;28;46571;-71
2022/04/17 11:09:09;;;;;;;;;2.00;2.00;;;;;;;;5078736;27;45433;-71
2022/04/17 11:11:37;;;;;;;;;2.00;2.00;;;;;;;;5075816;27;45554;-71
2022/04/17 11:14:16;;;;;;;;;1.67;1.67;;;;;;;;5077189;27;45386;-71
2022/04/17 11:16:52;;;;;;;;;2.00;2.00;;;;;;;;5077500;27;45391;-71
2022/04/17 11:19:19;;;;;;;;;0.50;0.50;;;;;;;;5076929;27;45267;-71
2022/04/17 11:21:45;;;;;;;;;2.00;2.00;;;;;;;;5075647;28;45617;-71
2022/04/17 11:24:10;;;;;;;;;0.00;0.00;;;;;;;;5076995;27;45466;-71
2022/04/17 11:26:50;;;;;;;;;4.00;2.75;;;;;;;;5077151;27;46523;-71
2022/04/17 11:29:16;;;;;;;;;2.00;2.00;;;;;;;;5057416;27;45288;-71
2022/04/17 11:31:41;;;;;;;;;0.33;0.33;;;;;;;;5076883;27;45425;-71
2022/04/17 11:34:06;;;;;;;;;2.00;2.00;;;;;;;;5077864;27;45545;-71
2022/04/17 11:36:32;;;;;;;;;2.00;2.00;;;;;;;;5077385;27;46311;-71
2022/04/17 11:38:57;;;;;;;;;1.33;1.33;;;;;;;;5078258;27;45332;-71
2022/04/17 11:41:23;;;;;;;;;1.00;1.00;;;;;;;;5075981;27;45262;-71
2022/04/17 11:44:02;;;;;;;;;1.50;1.50;;;;;;;;5075883;27;45550;-71
2022/04/17 11:46:27;;;;;;;;;1.00;1.00;;;;;;;;5071290;28;46341;-71
2022/04/17 11:48:53;;;;;;;;;2.50;2.00;;;;;;;;5074374;27;45333;-70
2022/04/17 11:51:20;;;;;;;;;2.00;2.00;;;;;;;;5074206;27;45480;-73
2022/04/17 11:53:45;;;;;;;;;2.33;1.00;;;;;;;;5075150;28;45495;-71
2022/04/17 11:56:10;;;;;;;;;1.75;1.00;;;;;;;;5076265;27;47038;-71
2022/04/17 11:58:35;;;;;;;;;0.67;0.67;;;;;;;;5074895;28;45367;-71
2022/04/17 12:01:03;;;;;;;;;1.00;1.00;;;;;;;;5074823;28;45152;-71
2022/04/17 12:03:57;;;;;;;;;1.00;1.00;;;;;;;;5069408;27;45290;-71
2022/04/17 12:06:32;;;;;;;;;1.33;1.33;;;;;;;;5073728;28;46100;-71
2022/04/17 12:08:57;;;;;;;;;1.67;1.67;;;;;;;;5076018;27;45521;-71
2022/04/17 12:11:23;;;;;;;;;2.75;2.75;;;;;;;;5075475;27;45362;-71
2022/04/17 12:13:57;;;;;;;;;1.00;1.00;;;;;;;;5075868;28;45370;-71
2022/04/17 12:16:22;;;;;;;;;2.00;2.00;;;;;;;;5076048;27;46555;-71
2022/04/17 12:18:55;;;;;;;;;2.00;2.00;;;;;;;;5073665;28;45318;-71
2022/04/17 12:21:27;;;;;;;;;2.25;2.25;;;;;;;;5074729;28;45449;-71
2022/04/17 12:23:53;;;;;;;;;1.25;1.25;;;;;;;;5075332;27;45865;-71
2022/04/17 12:26:19;;;;;;;;;2.00;2.00;;;;;;;;5075681;27;46482;-72
2022/04/17 12:28:45;;;;;;;;;1.00;1.00;;;;;;;;5074140;28;45341;-73
2022/04/17 12:31:12;;;;;;;;;1.67;1.67;;;;;;;;5063690;28;45542;-71
2022/04/17 12:33:37;;;;;;;;;1.67;1.67;;;;;;;;5067147;28;45591;-74
2022/04/17 12:36:03;;;;;;;;;1.67;1.67;;;;;;;;5074850;27;46485;-73
2022/04/17 12:38:28;;;;;;;;;3.00;3.00;;;;;;;;5074968;28;45509;-73
2022/04/17 12:40:53;;;;;;;;;2.67;2.67;;;;;;;;5073976;28;45469;-73
2022/04/17 12:43:19;;;;;;;;;2.67;2.67;;;;;;;;5074828;28;45410;-74
2022/04/17 12:45:53;;;;;;;;;4.00;2.00;;;;;;;;5070638;27;45492;-74
2022/04/17 12:48:23;;;;;;;;;2.75;2.25;;;;;;;;5064556;27;48472;-73
2022/04/17 12:50:55;;;;;;;;;3.33;2.33;;;;;;;;5077534;27;45519;-74
2022/04/17 12:53:21;;;;;;;;;1.67;1.67;;;;;;;;5075581;27;45570;-73
2022/04/17 12:55:46;;;;;;;;;2.75;1.75;;;;;;;;5077381;27;45606;-74
2022/04/17 12:58:12;;;;;;;;;4.00;2.25;;;;;;;;5077760;27;45857;-74
2022/04/17 13:00:37;;;;;;;;;2.25;2.00;;;;;;;;5076907;27;45471;-73
2022/04/17 13:03:10;;;;;;;;;3.00;3.00;;;;;;;;5074957;27;45549;-74
2022/04/17 13:05:35;;;;;;;;;4.75;3.00;;;;;;;;5079023;27;46296;-73
2022/04/17 13:08:07;;;;;;;;;3.25;3.25;;;;;;;;5078975;27;45350;-74
2022/04/17 13:10:33;;;;;;;;;2.00;2.00;;;;;;;;5077950;28;45620;-74
2022/04/17 13:12:58;;;;;;;;;2.00;2.00;;;;;;;;5077198;28;45338;-74
2022/04/17 13:15:33;;;;;;;;;1.00;1.00;;;;;;;;5075066;28;46988;-74
2022/04/17 13:17:59;;;;;;;;;2.75;2.00;;;;;;;;5077576;28;45552;-73
2022/04/17 13:20:25;;;;;;;;;2.25;1.25;;;;;;;;5078857;27;45275;-73
2022/04/17 13:22:50;;;;;;;;;3.75;3.00;;;;;;;;5079408;27;45455;-73
2022/04/17 13:25:17;;;;;;;;;3.00;3.00;;;;;;;;5078689;27;45291;-73
2022/04/17 13:27:42;;;;;;;;;2.75;2.75;;;;;;;;5080734;27;45475;-73
2022/04/17 13:30:09;;;;;;;;;2.25;2.25;;;;;;;;5077969;28;45429;-73
2022/04/17 13:32:34;;;;;;;;;2.00;2.00;;;;;;;;5077460;27;45398;-74
2022/04/17 13:34:59;;;;;;;;;3.00;3.00;;;;;;;;5078461;27;46457;-77
2022/04/17 13:40:09;;;;;;;;;3.50;3.50;;;;;;;;5077822;28;45474;-79
2022/04/17 13:42:38;;;;;;;;;2.75;2.75;;;;;;;;5079289;27;45627;-74
2022/04/17 13:45:04;;;;;;;;;3.00;2.75;;;;;;;;5079662;27;46612;-73
2022/04/17 13:47:29;;;;;;;;;1.67;1.67;;;;;;;;5078297;27;45514;-74
2022/04/17 13:49:54;;;;;;;;;2.00;2.00;;;;;;;;5080815;27;45402;-74
2022/04/17 13:52:19;;;;;;;;;2.50;2.50;;;;;;;;5080529;27;45346;-74
2022/04/17 13:54:44;;;;;;;;;2.50;2.50;;;;;;;;5077051;28;46648;-73
2022/04/17 13:57:10;;;;;;;;;3.00;3.00;;;;;;;;5078755;27;45472;-70
2022/04/17 13:59:35;;;;;;;;;2.00;2.00;;;;;;;;5077141;28;45555;-72
2022/04/17 14:02:00;;;;;;;;;4.50;3.00;;;;;;;;5077974;27;45532;-72
2022/04/17 14:04:25;;;;;;;;;2.00;2.00;;;;;;;;5076893;27;46330;-72
2022/04/17 14:06:51;;;;;;;;;3.25;3.25;;;;;;;;5076776;27;45541;-76
2022/04/17 14:09:16;;;;;;;;;2.00;2.00;;;;;;;;5079040;27;45370;-77
2022/04/17 14:11:42;;;;;;;;;1.00;1.00;;;;;;;;5079149;27;45419;-75
2022/04/17 14:14:07;;;;;;;;;2.75;2.00;;;;;;;;5077335;27;46244;-77
2022/04/17 14:16:32;;;;;;;;;3.00;3.00;;;;;;;;5078135;27;45408;-77
2022/04/17 14:18:58;;;;;;;;;2.00;2.00;;;;;;;;5080005;27;45445;-77
2022/04/17 14:21:23;;;;;;;;;2.00;1.00;;;;;;;;5077024;28;45470;-77
2022/04/17 14:23:48;;;;;;;;;3.00;2.00;;;;;;;;5077158;28;47217;-77
2022/04/17 14:26:13;;;;;;;;;1.00;1.00;;;;;;;;5078452;27;45472;-77
2022/04/17 14:28:38;;;;;;;;;2.00;1.00;;;;;;;;5080017;27;45486;-78
2022/04/17 14:31:05;;;;;;;;;1.75;1.75;;;;;;;;5078538;27;45279;-77
2022/04/17 14:33:30;;;;;;;;;2.25;1.25;;;;;;;;5077214;28;47436;-77
2022/04/17 14:35:57;;;;;;;;;2.75;2.50;;;;;;;;5075876;28;45471;-77
2022/04/17 14:38:22;;;;;;;;;2.00;2.00;;;;;;;;5077612;27;45315;-77
2022/04/17 14:40:47;;;;;;;;;1.75;1.75;;;;;;;;5077002;27;45430;-77
2022/04/17 14:43:13;;;;;;;;;2.00;1.00;;;;;;;;5077996;27;45521;-76
2022/04/17 14:45:39;;;;;;;;;3.25;3.25;;;;;;;;5078368;27;45215;-77
2022/04/17 14:48:04;;;;;;;;;2.25;2.25;;;;;;;;5076809;28;45418;-77
2022/04/17 14:50:30;;;;;;;;;2.00;2.00;;;;;;;;5076907;27;45338;-76
2022/04/17 14:52:55;;;;;;;;;2.00;2.00;;;;;;;;5079537;27;46804;-76